createdAt,value
2018-11-12T00:02:24.519Z,31.63
2018-11-12T00:04:53.001Z,33.53
2018-11-12T00:07:21.480Z,30.35
2018-11-12T00:09:49.984Z,32.63
2018-11-12T00:12:18.486Z,31.13
2018-11-12T00:14:46.968Z,32.00
2018-11-12T00:17:15.541Z,32.43
2018-11-12T00:19:44.004Z,31.63
2018-11-12T00:22:12.512Z,30.40
2018-11-12T00:24:40.983Z,30.60
2018-11-12T00:27:09.444Z,32.77
2018-11-12T00:29:38.031Z,28.70
2018-11-12T00:32:06.848Z,33.55
2018-11-12T00:34:35.348Z,31.80
2018-11-12T00:37:03.812Z,29.27
2018-11-12T00:39:32.311Z,30.20
2018-11-12T00:42:00.780Z,29.27
2018-11-12T00:44:29.548Z,29.00
2018-11-12T00:46:58.396Z,28.67
2018-11-12T00:49:26.872Z,28.90
2018-11-12T00:51:55.351Z,27.70
2018-11-12T00:54:23.820Z,28.93
2018-11-12T00:56:52.268Z,28.93
2018-11-12T00:59:20.751Z,29.10
2018-11-12T01:01:49.225Z,30.07
2018-11-12T01:04:17.837Z,29.90
2018-11-12T01:06:46.228Z,30.63
2018-11-12T01:09:15.276Z,26.93
2018-11-12T01:11:43.700Z,26.97
2018-11-12T01:14:12.240Z,25.73
2018-11-12T01:16:40.788Z,25.90
2018-11-12T01:19:09.276Z,28.13
2018-11-12T01:21:37.768Z,27.93
2018-11-12T01:24:06.628Z,28.70
2018-11-12T01:26:35.088Z,27.77
2018-11-12T01:29:03.581Z,27.77
2018-11-12T01:31:32.075Z,27.93
2018-11-12T01:34:00.556Z,27.60
2018-11-12T01:36:29.052Z,29.67
2018-11-12T01:38:57.519Z,27.87
2018-11-12T01:41:26.009Z,26.50
2018-11-12T01:43:54.469Z,26.47
2018-11-12T01:46:22.963Z,28.00
2018-11-12T01:48:51.415Z,27.13
2018-11-12T01:51:19.915Z,27.17
2018-11-12T01:53:48.423Z,23.90
2018-11-12T01:56:16.952Z,25.20
2018-11-12T01:58:45.524Z,25.77
2018-11-12T02:01:14.295Z,25.83
2018-11-12T02:03:42.757Z,25.30
2018-11-12T02:06:11.243Z,26.37
2018-11-12T02:08:39.755Z,24.47
2018-11-12T02:11:08.200Z,26.60
2018-11-12T02:13:36.956Z,27.93
2018-11-12T02:16:08.305Z,29.27
2018-11-12T02:18:36.795Z,28.30
2018-11-12T02:21:05.965Z,30.43
2018-11-12T02:23:34.491Z,28.77
2018-11-12T02:26:02.984Z,27.73
2018-11-12T02:28:31.483Z,29.12
2018-11-12T02:30:59.968Z,31.30
2018-11-12T02:33:28.455Z,29.15
2018-11-12T02:35:56.948Z,28.90
2018-11-12T02:38:25.971Z,30.20
2018-11-12T02:40:54.442Z,29.90
2018-11-12T02:43:23.024Z,28.13
2018-11-12T02:45:51.514Z,28.27
2018-11-12T02:48:19.999Z,32.23
2018-11-12T02:50:48.499Z,32.90
2018-11-12T02:53:17.075Z,31.93
2018-11-12T02:55:45.562Z,34.33
2018-11-12T02:58:14.026Z,32.17
2018-11-12T03:00:42.541Z,32.83
2018-11-12T03:03:11.039Z,31.17
2018-11-12T03:05:39.541Z,31.13
2018-11-12T03:08:07.980Z,29.67
2018-11-12T03:10:36.493Z,31.77
2018-11-12T03:13:05.386Z,30.93
2018-11-12T03:15:33.883Z,28.65
2018-11-12T03:18:02.337Z,36.30
2018-11-12T03:20:30.943Z,34.40
2018-11-12T03:22:59.461Z,30.80
2018-11-12T03:25:27.985Z,33.37
2018-11-12T03:27:56.540Z,34.27
2018-11-12T03:30:25.025Z,34.03
2018-11-12T03:32:54.075Z,35.00
2018-11-12T03:35:22.595Z,31.87
2018-11-12T03:37:51.659Z,31.83
2018-11-12T03:40:22.622Z,29.27
2018-11-12T03:42:51.592Z,29.20
2018-11-12T03:45:24.802Z,30.95
2018-11-12T03:47:53.475Z,28.97
2018-11-12T03:50:23.460Z,31.20
2018-11-12T03:52:52.060Z,31.00
2018-11-12T03:55:21.791Z,30.60
2018-11-12T03:57:50.262Z,31.20
2018-11-12T04:00:21.229Z,29.60
2018-11-12T04:02:49.683Z,27.80
2018-11-12T04:05:18.152Z,27.73
2018-11-12T04:07:46.675Z,27.63
2018-11-12T04:10:17.943Z,32.67
2018-11-12T04:12:46.462Z,29.33
2018-11-12T04:15:16.553Z,28.27
2018-11-12T04:17:45.040Z,28.57
2018-11-12T04:20:14.920Z,27.53
2018-11-12T04:22:50.797Z,29.20
2018-11-12T04:25:19.729Z,30.07
2018-11-12T04:27:48.211Z,27.82
2018-11-12T04:30:16.837Z,31.27
2018-11-12T04:32:46.647Z,32.13
2018-11-12T04:35:15.123Z,32.40
2018-11-12T04:37:43.659Z,35.28
2018-11-12T04:40:14.751Z,38.30
2018-11-12T04:42:43.576Z,43.00
2018-11-12T04:45:13.810Z,41.50
2018-11-12T04:47:43.280Z,36.10
2018-11-12T04:50:14.207Z,37.30
2018-11-12T04:52:43.019Z,35.57
2018-11-12T04:55:15.995Z,34.78
2018-11-12T04:57:44.964Z,36.57
2018-11-12T05:00:18.008Z,31.23
2018-11-12T05:02:46.476Z,33.77
2018-11-12T05:05:16.283Z,31.40
2018-11-12T05:07:45.318Z,30.17
2018-11-12T05:10:16.352Z,27.50
2018-11-12T05:13:47.757Z,26.90
2018-11-12T05:16:16.255Z,28.53
2018-11-12T05:18:44.724Z,28.87
2018-11-12T05:21:13.201Z,28.33
2018-11-12T05:23:41.653Z,28.67
2018-11-12T05:26:10.098Z,27.50
2018-11-12T05:28:38.634Z,27.20
2018-11-12T05:31:07.119Z,23.33
2018-11-12T05:33:35.662Z,22.48
2018-11-12T05:36:04.164Z,24.60
2018-11-12T05:38:32.663Z,22.27
2018-11-12T05:41:01.162Z,23.20
2018-11-12T05:43:29.604Z,25.20
2018-11-12T05:45:58.104Z,25.50
2018-11-12T05:48:26.828Z,23.40
2018-11-12T05:50:55.297Z,23.30
2018-11-12T05:53:23.767Z,23.57
2018-11-12T05:55:52.301Z,27.02
2018-11-12T05:58:20.784Z,25.83
2018-11-12T06:00:49.319Z,28.00
2018-11-12T06:03:17.788Z,29.97
2018-11-12T06:05:46.284Z,28.10
2018-11-12T06:08:14.739Z,29.37
2018-11-12T06:10:43.284Z,27.53
2018-11-12T06:13:11.762Z,30.67
2018-11-12T06:15:40.236Z,29.00
2018-11-12T06:18:08.745Z,28.07
2018-11-12T06:20:37.243Z,26.93
2018-11-12T06:23:06.071Z,25.57
2018-11-12T06:25:35.698Z,36.17
2018-11-12T06:28:04.408Z,28.38
2018-11-12T06:30:34.307Z,28.90
2018-11-12T06:33:02.885Z,28.07
2018-11-12T06:35:31.426Z,29.47
2018-11-12T06:38:00.140Z,29.25
2018-11-12T06:40:29.198Z,26.90
2018-11-12T06:42:57.735Z,28.57
2018-11-12T06:45:28.598Z,26.25
2018-11-12T06:47:58.121Z,27.30
2018-11-12T06:50:27.912Z,29.20
2018-11-12T06:52:56.838Z,45.40
2018-11-12T06:55:25.330Z,31.90
2018-11-12T06:57:54.952Z,27.32
2018-11-12T07:00:30.552Z,28.50
2018-11-12T07:02:59.039Z,28.40
2018-11-12T07:05:27.974Z,31.77
2018-11-12T07:07:56.445Z,28.17
2018-11-12T07:10:26.239Z,28.67
2018-11-12T07:12:55.409Z,29.00
2018-11-12T07:15:25.452Z,28.63
2018-11-12T07:17:53.980Z,27.60
2018-11-12T07:20:24.000Z,28.63
2018-11-12T07:22:52.933Z,27.10
2018-11-12T07:25:23.430Z,30.77
2018-11-12T07:27:51.867Z,30.60
2018-11-12T07:30:23.206Z,27.40
2018-11-12T07:32:52.724Z,30.00
2018-11-12T07:35:21.717Z,27.67
2018-11-12T07:37:51.565Z,27.20
2018-11-12T07:40:20.567Z,29.47
2018-11-12T07:42:49.108Z,29.30
2018-11-12T07:45:18.930Z,30.20
2018-11-12T07:47:48.436Z,30.20
2018-11-12T07:50:20.297Z,30.37
2018-11-12T07:52:48.792Z,31.20
2018-11-12T07:55:19.292Z,29.63
2018-11-12T07:57:49.300Z,29.10
2018-11-12T08:00:22.104Z,30.00
2018-11-12T08:02:51.841Z,29.87
2018-11-12T08:05:20.340Z,30.00
2018-11-12T08:07:49.056Z,29.60
2018-11-12T08:10:18.735Z,28.10
2018-11-12T08:12:47.955Z,26.93
2018-11-12T08:15:18.016Z,28.57
2018-11-12T08:17:46.716Z,25.90
2018-11-12T08:20:18.632Z,27.80
2018-11-12T08:22:48.485Z,29.97
2018-11-12T08:25:16.970Z,27.40
2018-11-12T08:27:45.907Z,26.70
2018-11-12T08:30:23.545Z,30.37
2018-11-12T08:32:53.814Z,30.48
2018-11-12T08:35:22.320Z,29.72
2018-11-12T08:37:51.536Z,31.15
2018-11-12T08:40:22.229Z,27.87
2018-11-12T08:42:50.714Z,28.77
2018-11-12T08:45:19.204Z,31.20
2018-11-12T08:47:49.342Z,32.60
2018-11-12T08:50:19.254Z,28.40
2018-11-12T08:52:48.878Z,33.13
2018-11-12T08:55:19.713Z,27.30
2018-11-12T08:57:49.667Z,27.67
2018-11-12T09:00:19.236Z,31.17
2018-11-12T09:02:48.099Z,27.70
2018-11-12T09:05:17.634Z,28.20
2018-11-12T09:07:47.679Z,25.93
2018-11-12T09:13:48.889Z,27.23
2018-11-12T09:16:17.480Z,28.52
2018-11-12T09:18:46.088Z,28.03
2018-11-12T09:21:14.795Z,28.30
2018-11-12T09:23:43.296Z,29.63
2018-11-12T09:26:11.783Z,29.17
2018-11-12T09:28:40.295Z,27.23
2018-11-12T09:31:09.887Z,29.27
2018-11-12T09:33:37.371Z,29.23
2018-11-12T09:36:05.962Z,23.13
2018-11-12T09:38:34.505Z,24.90
2018-11-12T09:41:02.972Z,27.00
2018-11-12T09:43:31.436Z,25.40
2018-11-12T09:46:00.010Z,26.73
2018-11-12T09:48:28.428Z,25.00
2018-11-12T09:50:56.964Z,25.97
2018-11-12T09:53:25.706Z,24.17
2018-11-12T09:55:54.183Z,25.03
2018-11-12T09:58:22.673Z,23.00
2018-11-12T10:00:51.446Z,23.33
2018-11-12T10:03:27.761Z,25.20
2018-11-12T10:05:58.483Z,22.90
2018-11-12T10:08:29.190Z,26.17
2018-11-12T10:10:59.196Z,27.90
2018-11-12T10:13:28.178Z,25.67
2018-11-12T10:15:58.023Z,27.97
2018-11-12T10:18:24.120Z,28.20
2018-11-12T10:20:52.582Z,27.30
2018-11-12T10:23:21.835Z,24.20
2018-11-12T10:25:50.539Z,26.30
2018-11-12T10:28:20.439Z,25.70
2018-11-12T10:30:49.361Z,27.20
2018-11-12T10:33:18.767Z,25.77
2018-11-12T10:35:47.535Z,26.00
2018-11-12T10:38:16.969Z,26.35
2018-11-12T10:40:45.590Z,25.37
2018-11-12T10:43:14.035Z,25.37
2018-11-12T10:45:42.528Z,26.40
2018-11-12T10:48:11.311Z,23.83
2018-11-12T10:50:40.147Z,23.87
2018-11-12T10:53:08.667Z,25.27
2018-11-12T10:55:37.290Z,24.87
2018-11-12T10:58:06.249Z,23.53
2018-11-12T11:00:40.377Z,25.17
2018-11-12T11:03:50.293Z,25.30
2018-11-12T11:06:18.807Z,24.07
2018-11-12T11:08:47.275Z,24.87
2018-11-12T11:11:15.795Z,29.80
2018-11-12T11:13:44.331Z,26.43
2018-11-12T11:16:12.816Z,25.80
2018-11-12T11:18:41.321Z,27.40
2018-11-12T11:21:09.807Z,25.83
2018-11-12T11:23:38.245Z,28.07
2018-11-12T11:26:06.776Z,26.70
2018-11-12T11:28:35.235Z,28.63
2018-11-12T11:31:03.818Z,25.43
2018-11-12T11:33:32.528Z,26.30
2018-11-12T11:36:00.997Z,25.73
2018-11-12T11:38:29.735Z,27.50
2018-11-12T11:40:58.451Z,25.47
2018-11-12T11:43:26.952Z,24.83
2018-11-12T11:45:55.951Z,28.75
2018-11-12T11:48:24.784Z,24.40
2018-11-12T11:50:53.353Z,29.10
2018-11-12T11:53:21.745Z,26.93
2018-11-12T11:55:50.541Z,31.10
2018-11-12T11:58:19.047Z,25.97
2018-11-12T12:00:47.902Z,28.77
2018-11-12T12:03:16.389Z,27.20
2018-11-12T12:05:45.188Z,26.27
2018-11-12T12:08:13.693Z,29.27
2018-11-12T12:11:45.452Z,31.23
2018-11-12T12:14:13.897Z,29.83
2018-11-12T12:16:42.439Z,28.32
2018-11-12T12:19:10.958Z,29.50
2018-11-12T12:21:40.471Z,28.57
2018-11-12T12:24:08.951Z,29.02
2018-11-12T12:26:37.642Z,30.55
2018-11-12T12:29:06.539Z,31.00
2018-11-12T12:31:35.363Z,33.53
2018-11-12T12:34:04.094Z,31.77
2018-11-12T12:36:32.771Z,29.67
2018-11-12T12:39:01.295Z,32.00
2018-11-12T12:41:29.751Z,29.93
2018-11-12T12:43:58.204Z,26.23
2018-11-12T12:46:26.716Z,25.00
2018-11-12T12:48:55.230Z,23.57
2018-11-12T12:51:23.725Z,24.53
2018-11-12T12:53:52.477Z,25.43
2018-11-12T12:56:20.934Z,21.83
2018-11-12T12:58:49.842Z,24.20
2018-11-12T13:01:18.308Z,25.37
2018-11-12T13:03:46.891Z,26.40
2018-11-12T13:06:15.416Z,25.68
2018-11-12T13:08:44.104Z,24.80
2018-11-12T13:11:12.644Z,34.80
2018-11-12T13:13:41.144Z,27.50
2018-11-12T13:16:10.063Z,22.70
2018-11-12T13:18:38.535Z,23.80
2018-11-12T13:21:07.150Z,23.53
2018-11-12T13:23:36.428Z,22.10
2018-11-12T13:26:04.955Z,22.03
2018-11-12T13:28:33.471Z,22.40
2018-11-12T13:31:01.964Z,24.23
2018-11-12T13:33:30.533Z,23.53
2018-11-12T13:35:59.101Z,21.30
2018-11-12T13:38:27.635Z,25.40
2018-11-12T13:40:56.115Z,22.30
2018-11-12T13:43:24.583Z,21.07
2018-11-12T13:45:53.070Z,22.15
2018-11-12T13:48:21.607Z,20.47
2018-11-12T13:50:50.062Z,22.30
2018-11-12T13:53:18.565Z,24.37
2018-11-12T13:55:47.045Z,24.23
2018-11-12T13:58:15.511Z,23.80
2018-11-12T14:00:44.009Z,22.50
2018-11-12T14:03:12.484Z,23.57
2018-11-12T14:05:41.228Z,23.03
2018-11-12T14:08:09.903Z,25.47
2018-11-12T14:10:38.383Z,24.87
2018-11-12T14:13:06.863Z,24.90
2018-11-12T14:15:41.953Z,25.37
2018-11-12T14:18:10.491Z,24.77
2018-11-12T14:20:39.153Z,25.17
2018-11-12T14:23:07.469Z,26.10
2018-11-12T14:25:35.975Z,25.20
2018-11-12T14:28:04.509Z,24.13
2018-11-12T14:30:33.013Z,24.53
2018-11-12T14:33:01.520Z,23.87
2018-11-12T14:35:30.445Z,25.00
2018-11-12T14:37:59.203Z,26.30
2018-11-12T14:40:27.692Z,26.57
2018-11-12T14:42:56.240Z,26.00
2018-11-12T14:45:24.841Z,24.53
2018-11-12T14:47:53.271Z,25.53
2018-11-12T14:50:22.113Z,27.00
2018-11-12T14:52:50.619Z,26.85
2018-11-12T14:55:19.452Z,25.07
2018-11-12T14:57:47.944Z,25.40
2018-11-12T15:00:19.079Z,25.07
2018-11-12T15:02:48.836Z,25.83
2018-11-12T15:05:18.560Z,24.57
2018-11-12T15:07:47.955Z,25.05
2018-11-12T15:10:16.483Z,25.90
2018-11-12T15:12:45.863Z,26.97
2018-11-12T15:15:14.906Z,22.87
2018-11-12T15:17:43.751Z,25.67
2018-11-12T15:20:15.145Z,25.65
2018-11-12T15:22:44.112Z,25.20
2018-11-12T15:25:14.999Z,28.17
2018-11-12T15:27:43.950Z,27.33
2018-11-12T15:30:14.997Z,26.15
2018-11-12T15:32:44.312Z,26.27
2018-11-12T15:35:13.561Z,28.83
2018-11-12T15:37:42.899Z,27.90
2018-11-12T15:40:12.379Z,28.17
2018-11-12T15:42:44.069Z,27.23
2018-11-12T15:45:18.174Z,29.87
2018-11-12T15:47:48.591Z,26.67
2018-11-12T15:50:29.506Z,28.00
2018-11-12T15:53:01.124Z,28.67
2018-11-12T15:55:31.936Z,26.10
2018-11-12T15:58:03.591Z,28.90
2018-11-12T16:00:33.837Z,29.40
2018-11-12T16:03:05.254Z,27.60
2018-11-12T16:05:35.776Z,31.30
2018-11-12T16:08:04.513Z,28.75
2018-11-12T16:10:33.038Z,27.93
2018-11-12T16:13:01.755Z,29.90
2018-11-12T16:15:30.447Z,30.92
2018-11-12T16:17:59.224Z,30.67
2018-11-12T16:20:29.347Z,33.37
2018-11-12T16:22:58.937Z,32.30
2018-11-12T16:25:28.305Z,33.17
2018-11-12T16:27:57.219Z,31.68
2018-11-12T16:30:25.726Z,31.70
2018-11-12T16:32:54.397Z,31.20
2018-11-12T16:35:24.190Z,30.27
2018-11-12T16:37:54.044Z,28.63
2018-11-12T16:40:22.571Z,28.90
2018-11-12T16:42:51.512Z,30.53
2018-11-12T16:45:19.979Z,29.77
2018-11-12T16:47:48.760Z,30.03
2018-11-12T16:50:17.786Z,29.53
2018-11-12T16:52:46.580Z,28.90
2018-11-12T16:55:17.451Z,30.08
2018-11-12T16:57:46.104Z,28.40
2018-11-12T17:01:17.573Z,26.93
2018-11-12T17:03:46.222Z,28.10
2018-11-12T17:06:14.707Z,25.77
2018-11-12T17:08:43.193Z,26.48
2018-11-12T17:11:11.723Z,27.32
2018-11-12T17:13:40.232Z,28.30
2018-11-12T17:16:08.699Z,29.65
2018-11-12T17:18:37.205Z,30.12
2018-11-12T17:21:05.997Z,27.40
2018-11-12T17:23:34.548Z,26.97
2018-11-12T17:26:03.370Z,27.15
2018-11-12T17:28:31.935Z,29.27
2018-11-12T17:31:00.566Z,28.90
2018-11-12T17:33:29.035Z,28.17
2018-11-12T17:35:57.521Z,27.30
2018-11-12T17:38:26.030Z,27.70
2018-11-12T17:40:54.754Z,30.17
2018-11-12T17:43:23.555Z,31.67
2018-11-12T17:45:51.996Z,29.73
2018-11-12T17:48:20.540Z,29.32
2018-11-12T17:50:49.008Z,29.32
2018-11-12T17:53:17.723Z,28.47
2018-11-12T17:55:46.396Z,31.37
2018-11-12T17:58:14.928Z,30.45
2018-11-12T18:00:43.646Z,28.53
2018-11-12T18:03:12.139Z,29.50
2018-11-12T18:05:40.612Z,29.13
2018-11-12T18:08:09.263Z,26.37
2018-11-12T18:10:37.556Z,25.77
2018-11-12T18:13:06.936Z,27.80
2018-11-12T18:15:35.452Z,32.57
2018-11-12T18:18:03.921Z,29.90
2018-11-12T18:20:32.676Z,28.23
2018-11-12T18:23:01.232Z,27.80
2018-11-12T18:25:29.880Z,28.80
2018-11-12T18:27:58.388Z,30.60
2018-11-12T18:30:28.601Z,30.50
2018-11-12T18:32:58.243Z,28.98
2018-11-12T18:35:26.981Z,28.40
2018-11-12T18:37:55.740Z,28.40
2018-11-12T18:40:25.632Z,29.27
2018-11-12T18:42:54.172Z,24.98
2018-11-12T18:45:23.892Z,30.40
2018-11-12T18:47:53.012Z,28.20
2018-11-12T18:50:23.463Z,24.32
2018-11-12T18:52:52.234Z,30.47
2018-11-12T18:55:20.687Z,27.07
2018-11-12T18:57:49.802Z,28.23
2018-11-12T19:00:19.637Z,29.10
2018-11-12T19:02:48.523Z,30.20
2018-11-12T19:05:18.938Z,35.40
2018-11-12T19:07:49.214Z,33.20
2018-11-12T19:10:19.222Z,31.60
2018-11-12T19:12:48.283Z,31.50
2018-11-12T19:15:19.323Z,31.17
2018-11-12T19:17:54.089Z,30.43
2018-11-12T19:20:22.702Z,29.53
2018-11-12T19:22:51.254Z,29.27
2018-11-12T19:25:19.749Z,31.83
2018-11-12T19:27:48.223Z,33.97
2018-11-12T19:30:21.383Z,31.60
2018-11-12T19:32:49.882Z,28.37
2018-11-12T19:35:20.140Z,29.23
2018-11-12T19:37:48.642Z,30.67
2018-11-12T19:40:18.703Z,29.20
2018-11-12T19:42:48.376Z,32.30
2018-11-12T19:45:17.040Z,32.87
2018-11-12T19:47:46.495Z,34.10
2018-11-12T19:50:17.493Z,34.40
2018-11-12T19:52:47.103Z,34.27
2018-11-12T19:55:15.828Z,34.95
2018-11-12T19:57:45.040Z,37.63
2018-11-12T20:00:15.011Z,35.55
2018-11-12T20:02:44.613Z,34.10
2018-11-12T20:05:13.131Z,34.07
2018-11-12T20:07:42.298Z,36.17
2018-11-12T20:10:12.874Z,34.90
2018-11-12T20:12:41.849Z,38.38
2018-11-12T20:15:11.763Z,36.90
2018-11-12T20:17:41.058Z,35.23
2018-11-12T20:20:14.282Z,36.97
2018-11-12T20:22:43.309Z,33.80
2018-11-12T20:25:13.327Z,38.10
2018-11-12T20:27:42.264Z,36.73
2018-11-12T20:30:15.883Z,38.40
2018-11-12T20:32:44.862Z,38.83
2018-11-12T20:35:13.323Z,36.10
2018-11-12T20:37:41.894Z,40.03
2018-11-12T20:40:11.455Z,35.77
2018-11-12T20:42:40.466Z,34.33
2018-11-12T20:45:10.416Z,38.50
2018-11-12T20:47:39.647Z,35.38
2018-11-12T20:50:09.412Z,37.20
2018-11-12T20:52:38.372Z,37.10
2018-11-12T20:55:08.620Z,39.40
2018-11-12T20:57:37.771Z,38.37
2018-11-12T21:00:10.414Z,41.60
2018-11-12T21:02:39.744Z,43.83
2018-11-12T21:05:09.191Z,40.47
2018-11-12T21:07:38.181Z,37.88
2018-11-12T21:10:07.869Z,38.93
2018-11-12T21:12:36.488Z,41.25
2018-11-12T21:15:05.581Z,39.87
2018-11-12T21:17:34.278Z,41.97
2018-11-12T21:20:02.793Z,40.37
2018-11-12T21:22:31.296Z,45.83
2018-11-12T21:25:00.546Z,41.80
2018-11-12T21:27:29.197Z,43.17
2018-11-12T21:29:58.051Z,43.70
2018-11-12T21:32:26.928Z,48.83
2018-11-12T21:34:55.440Z,46.47
2018-11-12T21:37:23.956Z,47.07
2018-11-12T21:39:52.442Z,47.97
2018-11-12T21:42:21.310Z,49.07
2018-11-12T21:44:49.772Z,49.73
2018-11-12T21:47:18.311Z,46.60
2018-11-12T21:49:46.820Z,45.73
2018-11-12T21:52:15.277Z,46.93
2018-11-12T21:54:43.891Z,52.33
2018-11-12T21:57:12.406Z,43.23
2018-11-12T21:59:40.931Z,48.23
2018-11-12T22:02:09.748Z,46.80
2018-11-12T22:04:38.272Z,46.43
2018-11-12T22:07:07.254Z,47.77
2018-11-12T22:09:35.764Z,44.50
2018-11-12T22:12:04.499Z,47.80
2018-11-12T22:14:33.715Z,47.45
2018-11-12T22:17:02.522Z,48.17
2018-11-12T22:19:31.086Z,45.30
2018-11-12T22:21:59.496Z,32.00
2018-11-12T22:24:27.976Z,26.27
2018-11-12T22:26:56.879Z,21.93
2018-11-12T22:29:25.412Z,21.50
2018-11-12T22:31:53.993Z,17.93
2018-11-12T22:34:22.468Z,21.47
2018-11-12T22:36:50.875Z,20.43
2018-11-12T22:39:19.396Z,19.23
2018-11-12T22:41:47.879Z,17.90
2018-11-12T22:44:16.750Z,21.47
2018-11-12T22:46:45.227Z,19.17
2018-11-12T22:49:13.756Z,21.37
2018-11-12T22:51:42.271Z,21.53
2018-11-12T22:54:10.826Z,22.62
2018-11-12T22:56:39.243Z,22.20
2018-11-12T22:59:07.756Z,21.73
2018-11-12T23:01:36.211Z,23.03
2018-11-12T23:04:04.744Z,24.60
2018-11-12T23:06:33.259Z,26.33
2018-11-12T23:09:01.854Z,28.73
2018-11-12T23:11:30.392Z,30.27
2018-11-12T23:13:58.854Z,30.27
2018-11-12T23:16:27.648Z,29.00
2018-11-12T23:18:56.202Z,28.43
2018-11-12T23:21:24.742Z,31.60
2018-11-12T23:23:53.557Z,31.23
2018-11-12T23:26:22.075Z,31.63
2018-11-12T23:28:50.582Z,32.73
2018-11-12T23:31:19.113Z,31.63
2018-11-12T23:33:47.843Z,32.40
2018-11-12T23:36:16.339Z,27.73
2018-11-12T23:38:44.903Z,29.47
2018-11-12T23:41:13.383Z,29.27
2018-11-12T23:43:41.909Z,27.13
2018-11-12T23:46:10.347Z,28.60
2018-11-12T23:48:38.852Z,24.70
2018-11-12T23:51:08.034Z,23.97
2018-11-12T23:53:36.502Z,27.62
2018-11-12T23:56:04.983Z,33.23
2018-11-12T23:58:33.641Z,31.10
